createdAt,value
2023-02-28T00:04:04.263Z,4.63
2023-02-28T00:09:06.350Z,6.30
2023-02-28T00:14:08.460Z,6.63
2023-02-28T00:19:10.658Z,6.55
2023-02-28T00:24:12.746Z,6.38
2023-02-28T00:29:14.883Z,7.25
2023-02-28T00:34:19.951Z,6.82
2023-02-28T00:39:22.556Z,6.50
2023-02-28T00:44:24.725Z,8.02
2023-02-28T00:49:28.281Z,6.13
2023-02-28T00:54:30.500Z,5.80
2023-02-28T00:59:32.737Z,5.20
2023-02-28T01:04:35.137Z,5.32
2023-02-28T01:09:37.408Z,5.13
2023-02-28T01:14:40.528Z,5.43
2023-02-28T01:19:42.965Z,5.75
2023-02-28T01:24:47.516Z,4.93
2023-02-28T01:29:52.128Z,5.00
2023-02-28T01:34:54.354Z,5.78
2023-02-28T01:39:56.496Z,5.20
2023-02-28T01:45:06.605Z,5.13
2023-02-28T01:50:13.256Z,5.63
2023-02-28T01:55:17.626Z,4.85
2023-02-28T02:00:23.452Z,4.53
2023-02-28T02:05:32.240Z,4.85
2023-02-28T02:10:48.881Z,4.65
2023-02-28T02:16:23.228Z,4.68
2023-02-28T02:21:36.623Z,4.32
2023-02-28T02:27:07.116Z,4.18
2023-02-28T02:32:39.491Z,3.28
2023-02-28T02:38:08.077Z,3.30
2023-02-28T02:43:19.630Z,3.90
2023-02-28T02:48:26.268Z,3.60
2023-02-28T02:53:34.697Z,3.22
2023-02-28T02:58:43.142Z,3.13
2023-02-28T03:03:46.821Z,3.03
2023-02-28T03:08:48.959Z,2.75
2023-02-28T03:14:15.162Z,2.40
2023-02-28T03:19:42.945Z,2.83
2023-02-28T03:24:49.489Z,2.50
2023-02-28T03:30:04.873Z,2.60
2023-02-28T03:35:31.984Z,2.40
2023-02-28T03:40:37.053Z,2.20
2023-02-28T03:45:42.429Z,2.30
2023-02-28T03:50:48.510Z,2.30
2023-02-28T03:56:01.224Z,1.70
2023-02-28T04:01:14.362Z,1.30
2023-02-28T04:06:20.560Z,1.20
2023-02-28T04:11:53.933Z,1.05
2023-02-28T04:16:55.981Z,1.40
2023-02-28T04:21:58.042Z,1.20
2023-02-28T04:27:03.067Z,1.40
2023-02-28T04:32:05.676Z,1.53
2023-02-28T04:37:13.806Z,2.05
2023-02-28T04:42:16.400Z,3.05
2023-02-28T04:47:18.506Z,2.80
2023-02-28T04:52:20.730Z,1.90
2023-02-28T04:57:22.754Z,2.17
2023-02-28T05:02:24.979Z,1.80
2023-02-28T05:07:27.125Z,2.50
2023-02-28T05:12:29.136Z,2.00
2023-02-28T05:17:31.200Z,2.60
2023-02-28T05:22:33.356Z,2.03
2023-02-28T05:27:35.411Z,3.45
2023-02-28T05:32:39.034Z,4.07
2023-02-28T05:37:41.111Z,5.00
2023-02-28T05:42:43.329Z,4.65
2023-02-28T05:47:45.541Z,5.10
2023-02-28T05:52:53.722Z,4.13
2023-02-28T05:57:56.077Z,3.40
2023-02-28T06:03:00.970Z,3.78
2023-02-28T06:08:03.057Z,2.53
2023-02-28T06:13:07.469Z,3.20
2023-02-28T06:18:09.538Z,3.10
2023-02-28T06:23:11.585Z,2.72
2023-02-28T06:28:13.604Z,2.63
2023-02-28T06:33:15.633Z,2.70
2023-02-28T06:38:19.147Z,2.47
2023-02-28T06:43:21.225Z,2.28
2023-02-28T06:48:23.816Z,2.00
2023-02-28T06:53:25.828Z,2.10
2023-02-28T06:58:27.871Z,2.50
2023-02-28T07:03:29.923Z,2.95
2023-02-28T07:08:32.758Z,3.17
2023-02-28T07:13:34.812Z,3.95
2023-02-28T07:18:37.857Z,3.80
2023-02-28T07:23:40.668Z,3.65
2023-02-28T07:28:43.456Z,3.95
2023-02-28T07:33:45.598Z,4.28
2023-02-28T07:38:51.941Z,4.55
2023-02-28T07:43:56.644Z,5.03
2023-02-28T07:49:00.562Z,4.80
2023-02-28T07:54:02.869Z,5.18
2023-02-28T07:59:04.930Z,5.38
2023-02-28T08:04:06.928Z,4.80
2023-02-28T08:09:08.930Z,5.30
2023-02-28T08:14:10.928Z,5.07
2023-02-28T08:19:12.941Z,5.22
2023-02-28T08:24:14.989Z,5.32
2023-02-28T08:29:17.468Z,5.20
2023-02-28T08:34:19.643Z,7.60
2023-02-28T08:39:21.686Z,8.85
2023-02-28T08:44:23.712Z,8.85
2023-02-28T08:49:25.825Z,7.75
2023-02-28T08:54:31.639Z,7.18
2023-02-28T09:04:35.702Z,7.00
2023-02-28T09:09:37.728Z,7.70
2023-02-28T09:14:39.769Z,7.85
2023-02-28T09:19:41.873Z,6.60
2023-02-28T09:24:45.828Z,6.88
2023-02-28T09:29:48.023Z,6.57
2023-02-28T09:34:50.145Z,6.22
2023-02-28T09:39:52.189Z,6.03
2023-02-28T09:44:54.669Z,5.68
2023-02-28T09:50:00.785Z,5.25
2023-02-28T09:55:19.987Z,4.82
2023-02-28T10:00:34.334Z,5.30
2023-02-28T10:05:45.496Z,5.97
2023-02-28T10:10:54.393Z,6.30
2023-02-28T10:16:06.542Z,6.28
2023-02-28T10:21:19.322Z,6.50
2023-02-28T10:26:21.543Z,7.35
2023-02-28T10:31:26.016Z,6.35
2023-02-28T10:36:29.585Z,6.60
2023-02-28T10:41:37.223Z,8.13
2023-02-28T10:46:41.622Z,8.18
2023-02-28T10:51:43.758Z,6.68
2023-02-28T10:56:46.225Z,7.45
2023-02-28T11:01:53.847Z,8.00
2023-02-28T11:07:05.969Z,5.90
2023-02-28T11:12:21.852Z,8.25
2023-02-28T11:17:30.894Z,7.95
2023-02-28T11:22:38.720Z,8.65
2023-02-28T11:27:51.781Z,8.43
2023-02-28T11:32:54.041Z,7.45
2023-02-28T11:37:56.224Z,8.48
2023-02-28T11:43:10.423Z,7.50
2023-02-28T11:48:41.576Z,7.47
2023-02-28T11:53:49.403Z,7.90
2023-02-28T11:59:00.925Z,7.30
2023-02-28T12:04:24.580Z,7.43
2023-02-28T12:09:47.891Z,5.15
2023-02-28T12:15:11.653Z,2.40
2023-02-28T12:20:47.009Z,2.60
2023-02-28T12:26:10.755Z,2.20
2023-02-28T12:31:25.063Z,2.25
2023-02-28T12:36:29.532Z,2.17
2023-02-28T12:41:38.321Z,2.22
2023-02-28T12:46:44.268Z,2.70
2023-02-28T12:57:13.529Z,2.70
2023-02-28T13:02:43.673Z,2.60
2023-02-28T13:07:57.853Z,2.38
2023-02-28T13:13:04.490Z,2.25
2023-02-28T13:18:26.831Z,2.13
2023-02-28T13:24:02.357Z,4.70
2023-02-28T13:29:19.175Z,2.03
2023-02-28T13:34:21.286Z,2.05
2023-02-28T13:39:36.245Z,1.48
2023-02-28T13:45:04.403Z,1.40
2023-02-28T13:50:30.638Z,1.10
2023-02-28T13:55:58.836Z,1.30
2023-02-28T14:01:24.165Z,0.95
2023-02-28T14:06:33.433Z,1.00
2023-02-28T14:11:38.840Z,1.20
2023-02-28T14:16:48.077Z,1.07
2023-02-28T14:22:41.062Z,1.45
2023-02-28T14:28:11.108Z,1.90
2023-02-28T14:33:32.735Z,2.05
2023-02-28T14:38:42.456Z,2.25
2023-02-28T14:43:59.968Z,2.80
2023-02-28T14:49:02.330Z,1.98
2023-02-28T14:54:05.365Z,2.05
2023-02-28T14:59:30.524Z,1.60
2023-02-28T15:04:34.213Z,1.65
2023-02-28T15:09:36.262Z,1.80
2023-02-28T15:14:39.632Z,2.30
2023-02-28T15:19:45.014Z,2.70
2023-02-28T15:24:53.145Z,1.55
2023-02-28T15:29:58.266Z,3.20
2023-02-28T15:35:19.282Z,1.50
2023-02-28T15:40:27.656Z,1.63
2023-02-28T15:45:38.571Z,1.20
2023-02-28T15:50:41.050Z,1.30
2023-02-28T15:55:43.489Z,2.40
2023-02-28T16:00:50.386Z,1.85
2023-02-28T16:06:17.462Z,1.05
2023-02-28T16:11:21.248Z,1.40
2023-02-28T16:16:25.438Z,1.10
2023-02-28T16:21:28.352Z,1.00
2023-02-28T16:26:30.655Z,1.55
2023-02-28T16:31:37.826Z,1.10
2023-02-28T16:36:39.863Z,1.25
2023-02-28T16:41:46.974Z,1.30
2023-02-28T16:46:49.151Z,2.33
2023-02-28T16:51:51.142Z,2.22
2023-02-28T16:56:53.357Z,1.63
2023-02-28T17:01:58.757Z,1.65
2023-02-28T17:07:01.129Z,2.15
2023-02-28T17:12:03.176Z,1.70
2023-02-28T17:17:08.669Z,1.45
2023-02-28T17:22:11.996Z,1.40
2023-02-28T17:27:14.267Z,1.70
2023-02-28T17:32:18.420Z,1.30
2023-02-28T17:37:20.818Z,1.08
2023-02-28T17:42:22.944Z,1.35
2023-02-28T17:47:25.041Z,2.55
2023-02-28T17:52:27.063Z,1.92
2023-02-28T17:57:29.079Z,1.70
2023-02-28T18:02:31.174Z,1.55
2023-02-28T18:07:33.290Z,1.50
2023-02-28T18:12:35.439Z,1.90
2023-02-28T18:17:37.449Z,1.30
2023-02-28T18:22:41.159Z,1.95
2023-02-28T18:27:53.998Z,1.90
2023-02-28T18:32:56.276Z,2.10
2023-02-28T18:37:58.307Z,2.33
2023-02-28T18:43:00.832Z,2.58
2023-02-28T18:48:02.903Z,2.38
2023-02-28T18:53:04.990Z,2.25
2023-02-28T18:58:07.325Z,2.10
2023-02-28T19:03:10.025Z,1.58
2023-02-28T19:08:12.043Z,1.80
2023-02-28T19:13:14.417Z,1.80
2023-02-28T19:18:16.634Z,1.95
2023-02-28T19:23:19.277Z,2.10
2023-02-28T19:28:21.782Z,2.70
2023-02-28T19:33:23.850Z,2.25
2023-02-28T19:38:25.952Z,2.60
2023-02-28T19:43:28.081Z,2.60
2023-02-28T19:48:30.274Z,2.72
2023-02-28T19:53:33.592Z,2.95
2023-02-28T19:58:36.233Z,3.28
2023-02-28T20:03:38.395Z,3.60
2023-02-28T20:08:40.895Z,4.20
2023-02-28T20:13:43.548Z,4.68
2023-02-28T20:18:51.233Z,4.63
2023-02-28T20:23:53.330Z,5.10
2023-02-28T20:28:55.521Z,5.05
2023-02-28T20:33:57.568Z,5.80
2023-02-28T20:39:00.636Z,5.55
2023-02-28T20:44:03.150Z,7.13
2023-02-28T20:49:05.322Z,5.80
2023-02-28T20:54:08.691Z,6.05
2023-02-28T20:59:12.294Z,5.82
2023-02-28T21:04:14.400Z,5.70
2023-02-28T21:09:16.526Z,5.22
2023-02-28T21:14:18.790Z,4.57
2023-02-28T21:19:20.927Z,5.72
2023-02-28T21:24:23.073Z,5.15
2023-02-28T21:29:25.253Z,6.55
2023-02-28T21:34:28.488Z,1.70
2023-02-28T21:39:30.737Z,1.00
2023-02-28T21:44:34.578Z,1.50
2023-02-28T21:49:39.223Z,1.45
2023-02-28T21:54:41.371Z,1.23
2023-02-28T21:59:43.943Z,1.77
2023-02-28T22:04:46.070Z,1.73
2023-02-28T22:09:48.201Z,1.50
2023-02-28T22:14:50.732Z,2.30
2023-02-28T22:19:52.834Z,2.88
2023-02-28T22:24:54.892Z,1.70
2023-02-28T22:29:57.946Z,1.20
2023-02-28T22:35:00.061Z,1.33
2023-02-28T22:40:02.182Z,1.20
2023-02-28T22:45:04.560Z,1.70
2023-02-28T22:50:07.064Z,1.38
2023-02-28T22:55:10.273Z,1.25
2023-02-28T23:00:15.573Z,1.38
2023-02-28T23:05:18.170Z,1.58
2023-02-28T23:10:20.255Z,1.70
2023-02-28T23:15:23.511Z,1.67
2023-02-28T23:20:25.618Z,1.50
2023-02-28T23:25:27.803Z,1.73
2023-02-28T23:30:29.998Z,2.25
2023-02-28T23:35:33.444Z,1.95
2023-02-28T23:40:35.838Z,2.13
2023-02-28T23:45:37.966Z,2.53
2023-02-28T23:50:40.218Z,2.30
2023-02-28T23:55:48.811Z,2.40
